Time;durP1;ratioP1;P1;durP2;ratioP2;P2;SDS_P1;SDS_P2;PMS_P1;PMS_P2;Temp;Humidity;BMP_temperature;BMP_pressure;BME280_temperature;BME280_humidity;BME280_pressure;Samples;Min_cycle;Max_cycle;Signal;HPM_P1;HPM_P2
2023/11/06 00:01:04;;;;;;;9.73;2.47;;;11.00;99.90;;;;;;5051284;28;20445;-77
2023/11/06 00:03:50;;;;;;;6.23;1.70;;;11.00;99.90;;;;;;5056102;28;21006;-77
2023/11/06 00:06:36;;;;;;;3.97;1.97;;;11.00;99.90;;;;;;5057150;28;20446;-77
2023/11/06 00:09:22;;;;;;;5.83;1.50;;;10.90;99.90;;;;;;5053399;28;20493;-78
2023/11/06 00:12:11;;;;;;;7.83;1.70;;;10.90;99.90;;;;;;5047661;28;20474;-76
2023/11/06 00:14:56;;;;;;;5.17;1.50;;;10.90;99.90;;;;;;5062826;28;20787;-77
2023/11/06 00:17:43;;;;;;;3.97;1.33;;;11.00;99.90;;;;;;5049401;28;20831;-76
2023/11/06 00:20:29;;;;;;;4.93;1.40;;;11.00;99.90;;;;;;5061248;28;20475;-77
2023/11/06 00:23:15;;;;;;;7.63;1.63;;;11.00;99.90;;;;;;5044622;28;20457;-76
2023/11/06 00:26:00;;;;;;;4.83;1.83;;;11.00;99.90;;;;;;5046413;28;20454;-75
2023/11/06 00:28:48;;;;;;;6.60;1.80;;;11.00;99.90;;;;;;5049803;28;20489;-75
2023/11/06 00:31:39;;;;;;;8.60;1.57;;;11.00;99.90;;;;;;5052490;28;21044;-77
2023/11/06 00:34:26;;;;;;;7.33;1.63;;;11.00;99.90;;;;;;5047855;28;20503;-76
2023/11/06 00:37:11;;;;;;;8.20;1.70;;;11.00;99.90;;;;;;5052572;28;20939;-76
2023/11/06 00:39:57;;;;;;;7.47;1.47;;;11.00;99.90;;;;;;5048971;28;20444;-77
2023/11/06 00:42:43;;;;;;;6.13;1.50;;;11.00;99.90;;;;;;5053273;28;20413;-76
2023/11/06 00:45:28;;;;;;;6.70;1.70;;;11.10;99.90;;;;;;5043356;28;20456;-75
2023/11/06 00:48:14;;;;;;;6.40;1.40;;;11.10;99.90;;;;;;5047761;28;20425;-77
2023/11/06 00:51:01;;;;;;;2.73;1.33;;;11.10;99.90;;;;;;5047595;28;20428;-77
2023/11/06 00:53:47;;;;;;;8.77;1.80;;;11.10;99.90;;;;;;5056463;28;20437;-76
2023/11/06 00:56:32;;;;;;;6.50;1.97;;;11.00;99.90;;;;;;5055487;28;20434;-75
2023/11/06 00:59:20;;;;;;;6.13;1.70;;;11.00;99.90;;;;;;5046211;28;20449;-77
2023/11/06 01:02:05;;;;;;;8.50;2.10;;;11.00;99.90;;;;;;5051489;28;20479;-77
2023/11/06 01:04:51;;;;;;;10.00;2.30;;;11.00;99.90;;;;;;5051357;28;20800;-77
2023/11/06 01:07:38;;;;;;;9.00;2.00;;;11.00;99.90;;;;;;5061367;28;20696;-77
2023/11/06 01:10:25;;;;;;;11.60;2.50;;;11.00;99.90;;;;;;5050773;28;21119;-73
2023/11/06 01:13:13;;;;;;;7.23;1.97;;;11.00;99.90;;;;;;5064697;28;21004;-76
2023/11/06 01:15:58;;;;;;;9.87;1.70;;;11.00;99.90;;;;;;5060882;28;20429;-77
2023/11/06 01:18:44;;;;;;;4.10;1.50;;;11.00;99.90;;;;;;5065569;28;20490;-77
2023/11/06 01:21:31;;;;;;;9.90;2.47;;;11.00;99.90;;;;;;5064514;28;20435;-73
2023/11/06 01:24:18;;;;;;;6.60;1.93;;;11.00;99.90;;;;;;5053118;28;20430;-77
2023/11/06 01:27:04;;;;;;;6.07;1.80;;;11.00;99.90;;;;;;5054704;28;20798;-76
2023/11/06 01:29:51;;;;;;;11.40;2.70;;;11.00;99.90;;;;;;5066346;28;20574;-77
2023/11/06 01:32:36;;;;;;;9.20;1.90;;;11.00;99.90;;;;;;5055164;28;20486;-76
2023/11/06 01:35:23;;;;;;;8.90;1.90;;;11.00;99.90;;;;;;5054146;28;20430;-76
2023/11/06 01:38:09;;;;;;;11.63;2.40;;;11.10;99.90;;;;;;5052563;28;20435;-77
2023/11/06 01:40:56;;;;;;;8.43;1.93;;;11.10;99.90;;;;;;5050516;28;20449;-77
2023/11/06 01:43:41;;;;;;;9.13;1.80;;;11.10;99.90;;;;;;5065793;28;21250;-76
2023/11/06 01:46:27;;;;;;;10.93;1.77;;;11.10;99.90;;;;;;5060720;28;20819;-77
2023/11/06 01:49:13;;;;;;;7.90;1.73;;;11.10;99.90;;;;;;5066751;28;20445;-77
2023/11/06 01:52:00;;;;;;;4.70;1.80;;;11.00;99.90;;;;;;5062882;28;21042;-76
2023/11/06 01:54:45;;;;;;;10.40;1.40;;;11.10;99.90;;;;;;5065450;28;20938;-77
2023/11/06 01:57:32;;;;;;;13.50;1.90;;;11.10;99.90;;;;;;5061552;28;20937;-77
2023/11/06 02:00:19;;;;;;;6.93;2.00;;;11.00;99.90;;;;;;5059038;28;20537;-76
2023/11/06 02:03:07;;;;;;;12.33;2.27;;;11.00;99.90;;;;;;5060916;28;20392;-77
2023/11/06 02:05:53;;;;;;;12.07;1.50;;;11.00;99.90;;;;;;5054003;28;20416;-76
2023/11/06 02:08:38;;;;;;;3.53;1.70;;;11.10;99.90;;;;;;5065504;28;20435;-76
2023/11/06 02:11:24;;;;;;;9.03;1.93;;;11.10;99.90;;;;;;5055518;28;20947;-77
2023/11/06 02:14:11;;;;;;;8.07;2.30;;;11.10;99.90;;;;;;5046185;28;20474;-74
2023/11/06 02:16:57;;;;;;;9.80;2.27;;;11.10;99.90;;;;;;5058557;28;20439;-76
2023/11/06 02:19:42;;;;;;;5.00;1.40;;;11.10;99.90;;;;;;5056621;28;20448;-76
2023/11/06 02:22:29;;;;;;;9.03;1.77;;;11.10;99.90;;;;;;5058950;28;20489;-73
2023/11/06 02:25:15;;;;;;;5.67;1.90;;;11.10;99.90;;;;;;5057594;28;20405;-77
2023/11/06 02:28:02;;;;;;;12.17;1.73;;;11.10;99.90;;;;;;5058201;28;20495;-76
2023/11/06 02:30:52;;;;;;;8.07;1.77;;;11.10;99.90;;;;;;5060409;28;20469;-77
2023/11/06 02:33:38;;;;;;;7.50;1.70;;;11.10;99.90;;;;;;5051000;28;20484;-77
2023/11/06 02:36:24;;;;;;;8.97;1.63;;;11.10;99.90;;;;;;5048804;28;20423;-77
2023/11/06 02:39:10;;;;;;;8.83;2.13;;;11.00;99.90;;;;;;5050445;28;20548;-77
2023/11/06 02:41:57;;;;;;;10.00;2.20;;;11.00;99.90;;;;;;5054029;28;20443;-77
2023/11/06 02:44:43;;;;;;;6.70;2.20;;;11.00;99.90;;;;;;5060271;28;20512;-77
2023/11/06 02:47:29;;;;;;;8.70;2.33;;;10.90;99.90;;;;;;5054731;28;20421;-77
2023/11/06 02:50:14;;;;;;;11.77;1.97;;;10.90;99.90;;;;;;5052484;28;20515;-77
2023/11/06 02:53:00;;;;;;;9.33;1.90;;;11.00;99.90;;;;;;5054593;28;21029;-77
2023/11/06 02:55:46;;;;;;;5.67;1.63;;;10.90;99.90;;;;;;5056995;28;20502;-72
2023/11/06 02:58:33;;;;;;;8.30;2.33;;;10.80;99.90;;;;;;5053496;28;20436;-76
2023/11/06 03:01:19;;;;;;;5.23;1.77;;;10.70;99.90;;;;;;5053592;28;20500;-77
2023/11/06 03:04:05;;;;;;;14.70;2.03;;;10.70;99.90;;;;;;5055549;28;20432;-76
2023/11/06 03:06:50;;;;;;;7.80;2.17;;;10.70;99.90;;;;;;5060265;28;20468;-76
2023/11/06 03:09:36;;;;;;;6.97;2.30;;;10.70;99.90;;;;;;5056495;22;20462;-86
2023/11/06 03:12:22;;;;;;;8.77;1.93;;;10.70;99.90;;;;;;5045503;28;20437;-87
2023/11/06 03:15:11;;;;;;;8.00;2.40;;;10.70;99.90;;;;;;5052308;28;21134;-87
2023/11/06 03:17:56;;;;;;;9.93;2.23;;;10.70;99.90;;;;;;5051809;28;20530;-87
2023/11/06 03:20:42;;;;;;;5.60;1.70;;;10.70;99.90;;;;;;5047432;28;20957;-87
2023/11/06 03:23:28;;;;;;;11.20;2.77;;;10.70;99.90;;;;;;5043298;28;20449;-87
2023/11/06 03:26:13;;;;;;;8.97;1.73;;;10.70;99.90;;;;;;5055150;28;20445;-87
2023/11/06 03:28:59;;;;;;;15.33;2.23;;;10.60;99.90;;;;;;5056077;28;20522;-87
2023/11/06 03:31:46;;;;;;;8.77;2.00;;;10.70;99.90;;;;;;5051042;28;20540;-86
2023/11/06 03:34:33;;;;;;;13.00;2.30;;;10.80;99.90;;;;;;5050075;28;20572;-87
2023/11/06 03:37:19;;;;;;;11.43;2.40;;;10.80;99.90;;;;;;5053629;28;20449;-86
2023/11/06 03:40:06;;;;;;;6.73;1.67;;;10.80;99.90;;;;;;5052130;28;20422;-86
2023/11/06 03:42:52;;;;;;;8.67;2.20;;;10.80;99.90;;;;;;5051772;28;20423;-87
2023/11/06 03:45:37;;;;;;;6.77;1.60;;;10.70;99.90;;;;;;5055771;28;20446;-89
2023/11/06 03:48:24;;;;;;;5.87;1.60;;;10.70;99.90;;;;;;5048308;28;20959;-86
2023/11/06 03:51:10;;;;;;;9.07;1.80;;;10.80;99.90;;;;;;5049597;28;20442;-86
2023/11/06 03:53:56;;;;;;;14.50;2.10;;;10.80;99.90;;;;;;5045988;28;20478;-86
2023/11/06 03:56:41;;;;;;;9.80;1.60;;;10.80;99.90;;;;;;5051442;28;20531;-86
2023/11/06 03:59:27;;;;;;;8.53;2.00;;;10.70;99.90;;;;;;5050545;28;20490;-89
2023/11/06 04:02:27;;;;;;;6.97;1.70;;;10.70;99.90;;;;;;5045737;28;20425;-88
2023/11/06 04:05:14;;;;;;;5.93;2.17;;;10.60;99.90;;;;;;5055211;28;20536;-88
2023/11/06 04:08:00;;;;;;;5.80;1.53;;;10.60;99.90;;;;;;5046254;28;20609;-88
2023/11/06 04:10:46;;;;;;;7.80;1.60;;;10.60;99.90;;;;;;5048183;28;20432;-88
2023/11/06 04:13:31;;;;;;;4.07;1.30;;;10.60;99.90;;;;;;5042275;28;20478;-88
2023/11/06 04:16:18;;;;;;;5.57;1.73;;;10.50;99.90;;;;;;5045737;28;20466;-89
2023/11/06 04:19:04;;;;;;;2.83;1.20;;;10.60;99.90;;;;;;5053136;28;20425;-87
2023/11/06 04:21:51;;;;;;;6.40;1.40;;;10.60;99.90;;;;;;5048754;28;20489;-88
2023/11/06 04:24:36;;;;;;;6.03;1.57;;;10.70;99.90;;;;;;5044236;28;20408;-87
2023/11/06 04:27:22;;;;;;;11.27;1.60;;;10.60;99.90;;;;;;5050495;28;20469;-87
2023/11/06 04:30:09;;;;;;;5.87;1.70;;;10.60;99.90;;;;;;5054207;28;20856;-88
2023/11/06 04:32:55;;;;;;;5.50;1.70;;;10.60;99.90;;;;;;5055406;28;20457;-88
2023/11/06 04:35:40;;;;;;;5.77;1.83;;;10.60;99.90;;;;;;5054161;28;20454;-88
2023/11/06 04:38:28;;;;;;;4.00;1.33;;;10.70;99.90;;;;;;5051675;28;20479;-88
2023/11/06 04:41:14;;;;;;;3.97;1.47;;;10.60;99.90;;;;;;5051463;28;20497;-87
2023/11/06 04:44:00;;;;;;;7.57;1.50;;;10.60;99.90;;;;;;5051654;28;20418;-87
2023/11/06 04:46:46;;;;;;;5.30;1.97;;;10.60;99.90;;;;;;5055100;28;20448;-88
2023/11/06 04:49:32;;;;;;;5.57;1.40;;;10.60;99.90;;;;;;5053833;28;20444;-87
2023/11/06 04:52:17;;;;;;;8.70;1.70;;;10.60;99.90;;;;;;5049386;28;20524;-88
2023/11/06 04:55:06;;;;;;;5.07;1.70;;;10.70;99.90;;;;;;5057149;28;20457;-87
2023/11/06 04:57:52;;;;;;;3.07;1.27;;;10.60;99.90;;;;;;5052731;28;20468;-88
2023/11/06 05:00:38;;;;;;;7.73;1.60;;;10.60;99.90;;;;;;5058148;28;20472;-88
2023/11/06 05:03:24;;;;;;;3.67;1.47;;;10.70;99.90;;;;;;5053105;28;20499;-87
2023/11/06 05:06:09;;;;;;;7.97;2.07;;;10.60;99.90;;;;;;5050237;28;20462;-87
2023/11/06 05:08:55;;;;;;;5.60;1.03;;;10.60;99.90;;;;;;5051342;28;20561;-88
2023/11/06 05:11:43;;;;;;;5.37;1.80;;;10.50;99.90;;;;;;5053683;28;20469;-87
2023/11/06 05:14:28;;;;;;;3.97;1.37;;;10.50;99.90;;;;;;5060020;28;20421;-88
2023/11/06 05:17:14;;;;;;;12.07;1.40;;;10.60;99.90;;;;;;5051985;28;20542;-87
2023/11/06 05:20:01;;;;;;;4.40;1.30;;;10.60;99.90;;;;;;5055430;28;20417;-88
2023/11/06 05:22:47;;;;;;;4.70;1.57;;;10.50;99.90;;;;;;5043963;28;20463;-88
2023/11/06 05:25:33;;;;;;;5.27;2.40;;;10.50;99.90;;;;;;5053166;28;20959;-87
2023/11/06 05:28:22;;;;;;;7.80;1.80;;;10.50;99.90;;;;;;5041521;28;20444;-88
2023/11/06 05:31:09;;;;;;;6.17;1.30;;;10.50;99.90;;;;;;5056300;28;20434;-87
2023/11/06 05:33:55;;;;;;;7.17;1.57;;;10.50;99.90;;;;;;5055163;28;20465;-87
2023/11/06 05:36:42;;;;;;;6.13;1.30;;;10.60;99.90;;;;;;5054567;28;20468;-87
2023/11/06 05:39:28;;;;;;;6.27;1.30;;;10.60;99.90;;;;;;5050957;28;20501;-87
2023/11/06 05:42:14;;;;;;;6.07;1.80;;;10.50;99.90;;;;;;5051658;28;20564;-88
2023/11/06 05:45:01;;;;;;;6.23;2.07;;;10.50;99.90;;;;;;5045921;28;20458;-87
2023/11/06 05:47:46;;;;;;;4.00;1.57;;;10.50;99.90;;;;;;5053144;28;20808;-87
2023/11/06 05:50:33;;;;;;;5.47;2.00;;;10.50;99.90;;;;;;5045251;28;20439;-87
2023/11/06 05:53:18;;;;;;;8.97;1.70;;;10.50;99.90;;;;;;5051118;28;20479;-87
2023/11/06 05:56:04;;;;;;;5.93;2.30;;;10.60;99.90;;;;;;5049770;28;20544;-87
2023/11/06 05:58:50;;;;;;;3.80;1.50;;;10.50;99.90;;;;;;5052654;28;20819;-87
2023/11/06 06:01:37;;;;;;;5.97;1.80;;;10.60;99.90;;;;;;5050851;28;20810;-88
2023/11/06 06:04:24;;;;;;;8.37;1.67;;;10.60;99.90;;;;;;5051245;28;21076;-88
2023/11/06 06:07:10;;;;;;;6.40;1.80;;;10.60;99.90;;;;;;5053880;28;20462;-87
2023/11/06 06:09:56;;;;;;;5.33;2.03;;;10.60;99.90;;;;;;5053709;28;20458;-88
2023/11/06 06:12:41;;;;;;;4.60;1.80;;;10.70;99.90;;;;;;5049067;28;20544;-88
2023/11/06 06:15:27;;;;;;;7.67;2.57;;;10.70;99.90;;;;;;5045369;28;20424;-88
2023/11/06 06:18:14;;;;;;;6.90;2.03;;;10.70;99.90;;;;;;5059276;28;20497;-87
2023/11/06 06:21:00;;;;;;;8.17;2.50;;;10.70;99.90;;;;;;5052743;28;20820;-89
2023/11/06 06:23:45;;;;;;;6.03;1.77;;;10.60;99.90;;;;;;5055904;28;20437;-88
2023/11/06 06:26:31;;;;;;;9.43;2.27;;;10.70;99.90;;;;;;5050308;28;20461;-88
2023/11/06 06:29:17;;;;;;;4.90;1.60;;;10.70;99.90;;;;;;5059474;28;20430;-88
2023/11/06 06:32:04;;;;;;;6.57;2.37;;;10.80;99.90;;;;;;5051275;28;20512;-88
2023/11/06 06:34:51;;;;;;;5.13;1.80;;;10.80;99.90;;;;;;5050704;28;20421;-87
2023/11/06 06:37:36;;;;;;;5.60;1.57;;;10.70;99.90;;;;;;5053222;28;20441;-88
2023/11/06 06:40:22;;;;;;;3.53;1.67;;;10.70;99.90;;;;;;5051364;28;20495;-87
2023/11/06 06:43:09;;;;;;;11.40;3.70;;;10.70;99.90;;;;;;5042258;28;20575;-87
2023/11/06 06:45:54;;;;;;;11.40;3.13;;;10.60;99.90;;;;;;5050880;28;20526;-87
2023/11/06 06:48:40;;;;;;;7.07;1.70;;;10.60;99.90;;;;;;5052471;28;20438;-87
2023/11/06 06:51:27;;;;;;;5.67;1.70;;;10.70;99.90;;;;;;5051851;28;20582;-87
2023/11/06 06:54:14;;;;;;;12.93;1.90;;;10.60;99.90;;;;;;5048426;28;20445;-86
2023/11/06 06:57:00;;;;;;;6.83;3.30;;;10.60;99.90;;;;;;5044785;28;20440;-87
2023/11/06 06:59:46;;;;;;;7.00;1.97;;;10.60;99.90;;;;;;5051292;28;20416;-88
2023/11/06 07:02:31;;;;;;;7.07;2.90;;;10.60;99.90;;;;;;5052280;28;20441;-87
2023/11/06 07:05:19;;;;;;;9.37;2.57;;;10.60;99.90;;;;;;5048062;28;20446;-87
2023/11/06 07:08:06;;;;;;;7.60;2.17;;;10.60;99.90;;;;;;5047258;28;20485;-88
2023/11/06 07:10:52;;;;;;;7.93;2.70;;;10.60;99.90;;;;;;5051159;28;20496;-88
2023/11/06 07:13:37;;;;;;;15.40;3.60;;;10.60;99.90;;;;;;5054871;28;20470;-87
2023/11/06 07:16:23;;;;;;;12.43;4.20;;;10.60;99.90;;;;;;5052972;28;20481;-88
2023/11/06 07:19:09;;;;;;;17.47;4.67;;;10.60;99.90;;;;;;5046074;28;20472;-88
2023/11/06 07:21:55;;;;;;;12.50;4.87;;;10.70;99.90;;;;;;5052226;28;21026;-88
2023/11/06 07:24:43;;;;;;;11.33;3.93;;;10.70;99.90;;;;;;5049339;28;20460;-87
2023/11/06 07:27:29;;;;;;;23.10;4.43;;;10.70;99.90;;;;;;5044080;28;20865;-87
2023/11/06 07:30:15;;;;;;;5.67;2.50;;;10.70;99.90;;;;;;5053294;28;20532;-87
2023/11/06 07:33:02;;;;;;;7.33;2.10;;;10.70;99.90;;;;;;5050882;28;20504;-88
2023/11/06 07:35:48;;;;;;;8.77;2.20;;;10.70;99.90;;;;;;5052003;28;20866;-87
2023/11/06 07:38:33;;;;;;;9.23;1.90;;;10.70;99.90;;;;;;5046754;28;20405;-88
2023/11/06 07:41:20;;;;;;;7.20;2.23;;;10.80;99.90;;;;;;5046645;28;20421;-88
2023/11/06 07:44:06;;;;;;;4.60;1.10;;;10.80;99.90;;;;;;5046338;28;20490;-88
2023/11/06 07:46:52;;;;;;;5.63;1.77;;;10.80;99.90;;;;;;5048252;28;20758;-88
2023/11/06 07:49:38;;;;;;;5.37;1.83;;;10.90;99.90;;;;;;5048725;28;20524;-88
2023/11/06 07:52:23;;;;;;;5.30;2.07;;;10.90;99.90;;;;;;5051826;28;20442;-87
2023/11/06 07:55:10;;;;;;;5.53;1.60;;;11.00;99.90;;;;;;5045482;28;20469;-88
2023/11/06 07:57:58;;;;;;;8.00;2.10;;;11.00;99.90;;;;;;5047253;28;20560;-88
2023/11/06 08:00:44;;;;;;;4.57;2.27;;;11.10;99.90;;;;;;5050133;28;21200;-88
2023/11/06 08:03:30;;;;;;;7.30;1.87;;;11.10;99.90;;;;;;5050950;28;20498;-88
2023/11/06 08:06:17;;;;;;;4.73;1.90;;;11.20;99.90;;;;;;5051383;28;20588;-87
2023/11/06 08:09:03;;;;;;;8.93;1.57;;;11.20;99.90;;;;;;5050292;28;20437;-88
2023/11/06 08:11:48;;;;;;;5.30;1.57;;;11.20;99.90;;;;;;5044633;28;20457;-88
2023/11/06 08:14:36;;;;;;;7.17;1.67;;;11.10;99.90;;;;;;5049470;28;20562;-87
2023/11/06 08:17:21;;;;;;;4.03;1.43;;;11.10;99.90;;;;;;5057208;28;20522;-87
2023/11/06 08:20:09;;;;;;;5.90;2.07;;;11.10;99.90;;;;;;5052774;28;20438;-88
2023/11/06 08:22:54;;;;;;;7.90;1.50;;;11.10;99.90;;;;;;5053029;28;20438;-88
2023/11/06 08:25:40;;;;;;;5.93;1.50;;;11.10;99.90;;;;;;5055707;28;20517;-88
2023/11/06 08:28:30;;;;;;;6.60;2.00;;;11.10;99.90;;;;;;5057066;28;20424;-87
2023/11/06 08:31:17;;;;;;;8.07;1.90;;;11.10;99.90;;;;;;5054164;28;20487;-87
2023/11/06 08:34:03;;;;;;;3.20;1.30;;;11.20;99.90;;;;;;5055163;28;21271;-87
2023/11/06 08:36:49;;;;;;;6.23;1.97;;;11.20;99.90;;;;;;5051924;28;20474;-87
2023/11/06 08:39:35;;;;;;;7.93;2.67;;;11.10;99.90;;;;;;5052692;28;20476;-87
2023/11/06 08:42:21;;;;;;;8.20;2.00;;;11.20;99.90;;;;;;5051292;28;20425;-87
2023/11/06 08:45:08;;;;;;;3.40;1.23;;;11.20;99.90;;;;;;5052310;28;20523;-88
2023/11/06 08:47:55;;;;;;;5.57;1.63;;;11.20;99.90;;;;;;5051921;28;20497;-87
2023/11/06 08:50:41;;;;;;;9.87;1.67;;;11.40;99.90;;;;;;5052330;28;20426;-88
2023/11/06 08:53:26;;;;;;;7.83;1.40;;;11.60;99.90;;;;;;5052538;28;20470;-88
2023/11/06 08:56:12;;;;;;;11.50;1.90;;;11.70;99.90;;;;;;5050677;28;20840;-86
2023/11/06 08:58:59;;;;;;;4.30;1.60;;;11.70;99.90;;;;;;5054009;28;20815;-86
2023/11/06 09:01:48;;;;;;;17.03;2.00;;;11.80;99.90;;;;;;5049625;28;20917;-86
2023/11/06 09:04:35;;;;;;;11.60;1.87;;;11.80;99.90;;;;;;5044313;28;20473;-86
2023/11/06 09:07:20;;;;;;;9.80;1.60;;;11.80;99.90;;;;;;5043121;28;21060;-86
2023/11/06 09:10:07;;;;;;;6.87;2.00;;;11.80;99.90;;;;;;5050735;28;20462;-86
2023/11/06 09:12:53;;;;;;;6.40;1.50;;;11.80;99.90;;;;;;5051004;28;20441;-85
2023/11/06 09:15:40;;;;;;;7.43;1.63;;;11.80;99.90;;;;;;5051456;28;20426;-86
2023/11/06 09:18:26;;;;;;;3.97;1.60;;;11.90;99.90;;;;;;5048389;28;20438;-87
2023/11/06 09:21:13;;;;;;;9.57;1.63;;;11.80;99.90;;;;;;5050272;28;21022;-86
2023/11/06 09:23:59;;;;;;;11.33;1.73;;;11.80;99.90;;;;;;5049191;28;20426;-86
2023/11/06 09:26:46;;;;;;;8.00;1.90;;;11.90;99.90;;;;;;5050187;28;20579;-86
2023/11/06 09:29:32;;;;;;;6.77;1.20;;;12.00;99.90;;;;;;5049822;28;20559;-86
2023/11/06 09:32:18;;;;;;;3.13;1.23;;;12.00;99.90;;;;;;5050338;28;20434;-86
2023/11/06 09:35:04;;;;;;;3.07;1.13;;;12.20;99.90;;;;;;5047405;28;20486;-86
2023/11/06 09:37:51;;;;;;;8.40;1.70;;;12.40;99.90;;;;;;5052877;28;20450;-86
2023/11/06 09:40:37;;;;;;;10.73;1.70;;;12.40;99.90;;;;;;5051760;28;21062;-87
2023/11/06 09:43:23;;;;;;;9.13;1.80;;;12.60;99.90;;;;;;5049265;28;20449;-86
2023/11/06 09:46:10;;;;;;;11.73;1.80;;;12.70;99.90;;;;;;5048125;28;20472;-86
2023/11/06 09:49:05;;;;;;;4.97;1.60;;;12.80;99.90;;;;;;5050876;28;20430;-87
2023/11/06 09:51:53;;;;;;;6.70;1.50;;;13.00;99.90;;;;;;5051735;28;20428;-86
2023/11/06 09:54:41;;;;;;;6.70;1.50;;;13.20;99.90;;;;;;5051052;28;20502;-86
2023/11/06 09:57:27;;;;;;;10.50;2.03;;;13.20;99.90;;;;;;5049843;28;20482;-86
2023/11/06 10:00:16;;;;;;;7.83;2.00;;;13.00;99.90;;;;;;5052057;28;20461;-88
2023/11/06 10:03:03;;;;;;;5.90;2.10;;;12.90;99.90;;;;;;5048273;28;20405;-87
2023/11/06 10:05:49;;;;;;;13.60;2.37;;;12.90;99.90;;;;;;5050368;28;20430;-87
2023/11/06 10:08:37;;;;;;;6.20;2.10;;;12.90;99.90;;;;;;5045957;28;20434;-87
2023/11/06 10:11:25;;;;;;;3.20;1.47;;;12.90;99.90;;;;;;5050555;28;20469;-87
2023/11/06 10:14:11;;;;;;;7.07;1.20;;;13.00;99.90;;;;;;5053672;28;20477;-87
2023/11/06 10:17:03;;;;;;;4.20;1.50;;;13.00;99.90;;;;;;5050838;28;20446;-87
2023/11/06 10:20:00;;;;;;;5.03;1.30;;;13.20;99.90;;;;;;5051575;28;20422;-87
2023/11/06 10:22:55;;;;;;;6.60;1.43;;;13.20;99.90;;;;;;5051716;28;20442;-87
2023/11/06 10:25:40;;;;;;;5.53;1.53;;;13.30;99.90;;;;;;5052505;28;20451;-87
2023/11/06 10:28:27;;;;;;;4.67;1.20;;;13.30;99.90;;;;;;5052779;28;20533;-87
2023/11/06 10:31:13;;;;;;;6.30;1.87;;;13.30;99.90;;;;;;5051758;28;20425;-87
2023/11/06 10:33:59;;;;;;;5.80;2.07;;;13.50;99.90;;;;;;5052794;28;20441;-86
2023/11/06 10:36:45;;;;;;;3.30;1.30;;;13.50;99.90;;;;;;5051053;28;20446;-87
2023/11/06 10:39:30;;;;;;;4.10;1.60;;;13.40;99.90;;;;;;5051646;28;20424;-88
2023/11/06 10:42:16;;;;;;;7.27;1.37;;;13.40;99.90;;;;;;5053039;28;20825;-87
2023/11/06 10:45:05;;;;;;;3.90;1.50;;;13.20;99.90;;;;;;5052566;28;20421;-87
2023/11/06 10:47:56;;;;;;;6.50;1.80;;;13.10;99.90;;;;;;5053329;28;21066;-87
2023/11/06 10:50:43;;;;;;;12.13;2.33;;;13.00;99.90;;;;;;5052343;28;20409;-87
2023/11/06 10:53:31;;;;;;;4.83;1.20;;;12.90;99.90;;;;;;5053057;28;20424;-88
2023/11/06 10:56:18;;;;;;;4.77;1.30;;;12.80;99.90;;;;;;5047609;28;20610;-87
2023/11/06 10:59:04;;;;;;;6.07;1.30;;;12.70;99.90;;;;;;5052301;28;20980;-88
2023/11/06 11:01:55;;;;;;;5.30;1.27;;;12.70;99.90;;;;;;5046772;28;20443;-88
2023/11/06 11:04:44;;;;;;;4.73;1.40;;;12.60;99.90;;;;;;5041608;28;20450;-87
2023/11/06 11:07:31;;;;;;;2.83;1.17;;;12.60;99.90;;;;;;5045492;28;20489;-87
2023/11/06 11:10:18;;;;;;;6.30;1.50;;;12.70;99.90;;;;;;5049552;28;20442;-88
2023/11/06 11:13:08;;;;;;;6.90;1.20;;;12.70;99.90;;;;;;5051777;28;20431;-87
2023/11/06 11:15:54;;;;;;;4.57;1.37;;;12.70;99.90;;;;;;5050478;28;20471;-87
2023/11/06 11:18:41;;;;;;;5.53;1.33;;;12.70;99.90;;;;;;5054906;28;20449;-86
2023/11/06 11:22:00;;;;;;;6.27;1.50;;;12.70;99.90;;;;;;5057057;28;20498;-86
2023/11/06 11:24:53;;;;;;;5.60;1.47;;;12.70;99.90;;;;;;5051985;28;20450;-86
2023/11/06 11:27:39;;;;;;;2.33;1.20;;;12.80;99.90;;;;;;5047690;28;20461;-87
2023/11/06 11:30:27;;;;;;;6.77;1.43;;;12.80;99.90;;;;;;5053666;28;20448;-87
2023/11/06 11:33:33;;;;;;;7.33;1.80;;;12.90;99.90;;;;;;5055818;28;20424;-86
2023/11/06 11:36:31;;;;;;;2.53;1.03;;;12.80;99.90;;;;;;5053966;28;20986;-87
2023/11/06 11:39:17;;;;;;;5.30;1.70;;;12.80;99.90;;;;;;5052133;28;20438;-86
2023/11/06 11:42:22;;;;;;;5.77;1.10;;;12.90;99.90;;;;;;5058787;28;20438;-87
2023/11/06 11:45:11;;;;;;;10.43;1.03;;;12.90;99.90;;;;;;5049902;28;20421;-87
2023/11/06 11:47:57;;;;;;;8.70;1.30;;;12.90;99.90;;;;;;5053239;28;20421;-87
2023/11/06 11:50:43;;;;;;;7.20;1.80;;;12.80;99.90;;;;;;5053074;28;20447;-88
2023/11/06 11:53:35;;;;;;;6.20;1.10;;;12.90;99.90;;;;;;5053368;28;20543;-90
2023/11/06 11:56:49;;;;;;;4.70;1.17;;;12.90;99.90;;;;;;5051036;28;20499;-89
2023/11/06 11:59:43;;;;;;;3.80;1.00;;;12.90;99.90;;;;;;5050545;28;20557;-89
2023/11/06 12:02:32;;;;;;;3.20;1.10;;;12.90;99.90;;;;;;5052815;28;20546;-87
2023/11/06 12:05:18;;;;;;;3.30;1.33;;;13.00;99.90;;;;;;5048512;28;20439;-85
2023/11/06 12:08:15;;;;;;;4.97;1.43;;;13.00;99.90;;;;;;5052190;28;20522;-86
2023/11/06 12:11:09;;;;;;;4.50;1.40;;;12.90;99.90;;;;;;5044315;28;20453;-86
2023/11/06 12:13:54;;;;;;;12.70;1.50;;;13.00;99.90;;;;;;5050240;28;20426;-87
2023/11/06 12:16:51;;;;;;;8.13;1.20;;;13.10;99.90;;;;;;5050928;28;20969;-87
2023/11/06 12:19:42;;;;;;;3.17;0.70;;;13.00;99.90;;;;;;5051781;28;20405;-88
2023/11/06 12:22:30;;;;;;;9.47;1.43;;;13.20;99.90;;;;;;5049151;28;20414;-86
2023/11/06 12:25:26;;;;;;;3.50;0.97;;;13.20;99.90;;;;;;5057831;28;20555;-88
2023/11/06 12:28:15;;;;;;;4.37;1.10;;;13.40;99.90;;;;;;5050993;28;20537;-87
2023/11/06 12:31:00;;;;;;;3.20;1.07;;;13.50;99.90;;;;;;5054002;28;20450;-86
2023/11/06 12:33:46;;;;;;;5.30;1.33;;;13.50;99.90;;;;;;5051583;28;20432;-87
2023/11/06 12:36:34;;;;;;;6.17;1.80;;;13.40;99.90;;;;;;5046948;28;20458;-86
2023/11/06 12:39:28;;;;;;;3.53;1.00;;;13.30;99.90;;;;;;5054108;28;20825;-86
2023/11/06 12:42:18;;;;;;;4.73;1.40;;;13.20;99.90;;;;;;5052041;28;20796;-87
2023/11/06 12:45:24;;;;;;;3.90;1.73;;;13.10;99.90;;;;;;5048948;28;20518;-87
2023/11/06 12:48:26;;;;;;;3.57;1.10;;;13.00;99.90;;;;;;5051053;28;20453;-87
2023/11/06 12:51:14;;;;;;;7.30;1.40;;;12.60;99.90;;;;;;5055820;28;20589;-86
2023/11/06 12:53:59;;;;;;;6.77;1.87;;;12.50;99.90;;;;;;5049343;28;20486;-86
2023/11/06 12:56:45;;;;;;;8.63;1.53;;;12.50;99.90;;;;;;5049049;28;21375;-89
2023/11/06 12:59:30;;;;;;;3.23;1.13;;;12.60;99.90;;;;;;5053184;28;20470;-87
2023/11/06 13:02:19;;;;;;;5.23;1.73;;;12.60;99.90;;;;;;5053821;28;20420;-87
2023/11/06 13:05:08;;;;;;;3.93;1.37;;;12.60;99.90;;;;;;5054029;28;20512;-86
2023/11/06 13:07:54;;;;;;;3.70;1.10;;;12.70;99.90;;;;;;5056341;28;20444;-86
2023/11/06 13:10:40;;;;;;;5.23;1.03;;;12.70;99.90;;;;;;5056965;28;20469;-86
2023/11/06 13:13:26;;;;;;;3.40;0.90;;;12.60;99.90;;;;;;5061652;28;20708;-86
2023/11/06 13:16:11;;;;;;;2.00;1.10;;;12.60;99.90;;;;;;5053587;28;20468;-86
2023/11/06 13:18:59;;;;;;;3.53;1.43;;;12.50;99.90;;;;;;5055470;28;20446;-87
2023/11/06 13:21:45;;;;;;;4.00;1.13;;;12.50;99.90;;;;;;5057601;28;20453;-86
2023/11/06 13:24:30;;;;;;;1.97;0.80;;;12.40;99.90;;;;;;5055153;28;20455;-86
2023/11/06 13:27:17;;;;;;;1.50;0.70;;;12.40;99.90;;;;;;5054160;28;20511;-86
2023/11/06 13:30:03;;;;;;;2.33;0.87;;;12.50;99.90;;;;;;5054776;28;20464;-86
2023/11/06 13:32:49;;;;;;;2.07;0.90;;;12.50;99.90;;;;;;5053132;28;20449;-86
2023/11/06 13:35:39;;;;;;;4.40;1.10;;;12.40;99.90;;;;;;5055033;28;20456;-87
2023/11/06 13:38:24;;;;;;;5.23;0.90;;;12.40;99.90;;;;;;5052707;28;20458;-87
2023/11/06 13:41:19;;;;;;;1.87;1.10;;;12.30;99.90;;;;;;5058927;28;20454;-87
2023/11/06 13:44:10;;;;;;;4.87;1.10;;;12.40;99.90;;;;;;5053122;28;20416;-86
2023/11/06 13:46:55;;;;;;;2.67;1.50;;;12.40;99.90;;;;;;5054758;28;20493;-86
2023/11/06 13:49:41;;;;;;;3.53;1.00;;;12.40;99.90;;;;;;5051842;28;20443;-86
2023/11/06 13:52:41;;;;;;;2.27;1.10;;;12.40;99.90;;;;;;5057620;28;20433;-84
2023/11/06 13:55:31;;;;;;;2.53;1.03;;;12.40;99.90;;;;;;5055318;28;20486;-86
2023/11/06 13:58:18;;;;;;;2.00;0.93;;;12.40;99.90;;;;;;5054074;28;20556;-86
2023/11/06 14:01:07;;;;;;;1.93;0.80;;;12.40;99.90;;;;;;5054530;28;20449;-86
2023/11/06 14:03:53;;;;;;;2.47;0.80;;;12.40;99.90;;;;;;5052343;28;20450;-86
2023/11/06 14:06:39;;;;;;;2.10;0.83;;;12.40;99.90;;;;;;5056871;28;20649;-85
2023/11/06 14:09:38;;;;;;;3.20;0.93;;;12.50;99.90;;;;;;5054321;28;20862;-86
2023/11/06 14:12:24;;;;;;;2.83;0.80;;;12.50;99.90;;;;;;5053067;28;20474;-87
2023/11/06 14:15:10;;;;;;;1.90;1.10;;;12.50;99.90;;;;;;5053925;28;20565;-88
2023/11/06 14:17:57;;;;;;;4.50;1.00;;;12.50;99.90;;;;;;5055563;28;20464;-87
2023/11/06 14:20:43;;;;;;;2.60;0.80;;;12.50;99.90;;;;;;5054222;28;20417;-86
2023/11/06 14:23:29;;;;;;;1.40;0.73;;;12.50;99.90;;;;;;5055190;28;20428;-86
2023/11/06 14:26:16;;;;;;;2.63;1.03;;;12.40;99.90;;;;;;5052195;28;20546;-86
2023/11/06 14:29:02;;;;;;;2.23;0.93;;;12.30;99.90;;;;;;5051560;28;20429;-86